Time;durP1;ratioP1;P1;durP2;ratioP2;P2;SDS_P1;SDS_P2;PMS_P1;PMS_P2;Temp;Humidity;BMP_temperature;BMP_pressure;BME280_temperature;BME280_humidity;BME280_pressure;Samples;Min_cycle;Max_cycle;Signal;HPM_P1;HPM_P2
2023/07/07 00:00:39;;;;;;;4.15;2.53;;;15.90;99.90;;;;;;5073019;28;20225;-57
2023/07/07 00:03:06;;;;;;;2.60;2.30;;;15.90;99.90;;;;;;5072797;28;20200;-58
2023/07/07 00:05:34;;;;;;;4.45;2.75;;;15.90;99.90;;;;;;5072338;28;20211;-59
2023/07/07 00:08:01;;;;;;;3.43;2.33;;;15.90;99.90;;;;;;5072773;28;20213;-58
2023/07/07 00:10:28;;;;;;;3.45;2.58;;;15.90;99.90;;;;;;5072645;28;20709;-58
2023/07/07 00:12:58;;;;;;;3.67;2.42;;;15.90;99.90;;;;;;5072805;28;20209;-59
2023/07/07 00:15:24;;;;;;;3.67;2.27;;;15.90;99.90;;;;;;5072440;28;20208;-59
2023/07/07 00:17:51;;;;;;;3.20;2.43;;;15.80;99.90;;;;;;5072139;28;20204;-59
2023/07/07 00:20:18;;;;;;;3.67;2.50;;;15.70;99.90;;;;;;5072668;28;20244;-59
2023/07/07 00:22:47;;;;;;;3.07;2.50;;;15.60;99.90;;;;;;5072583;28;20211;-58
2023/07/07 00:25:14;;;;;;;4.43;2.50;;;15.60;99.90;;;;;;5072661;28;20205;-58
2023/07/07 00:27:41;;;;;;;3.87;2.47;;;15.50;99.90;;;;;;5072187;28;20294;-58
2023/07/07 00:30:10;;;;;;;3.00;2.50;;;15.50;99.90;;;;;;5072175;28;20236;-59
2023/07/07 00:32:37;;;;;;;4.43;2.40;;;15.40;99.90;;;;;;5072109;28;20300;-57
2023/07/07 00:35:04;;;;;;;4.23;2.83;;;15.40;99.90;;;;;;5072284;28;20200;-59
2023/07/07 00:37:31;;;;;;;3.30;2.63;;;15.30;99.90;;;;;;5072054;28;20266;-60
2023/07/07 00:39:58;;;;;;;4.77;2.57;;;15.30;99.90;;;;;;5072078;28;20725;-58
2023/07/07 00:42:25;;;;;;;3.87;2.47;;;15.30;99.90;;;;;;5072558;28;20208;-58
2023/07/07 00:45:15;;;;;;;3.83;2.53;;;15.30;99.90;;;;;;5072728;28;20257;-61
2023/07/07 00:47:46;;;;;;;3.57;2.60;;;15.20;99.90;;;;;;5072012;28;20695;-59
2023/07/07 00:50:15;;;;;;;2.93;2.47;;;15.10;99.90;;;;;;5072482;28;20286;-58
2023/07/07 00:52:44;;;;;;;3.73;2.57;;;15.20;99.90;;;;;;5072275;28;20208;-57
2023/07/07 00:55:15;;;;;;;5.23;3.03;;;15.20;99.90;;;;;;5072119;28;20209;-58
2023/07/07 00:57:42;;;;;;;3.17;2.33;;;15.20;99.90;;;;;;5071747;28;20212;-58
2023/07/07 01:00:13;;;;;;;6.10;2.50;;;15.30;99.90;;;;;;5071761;28;20237;-60
2023/07/07 01:02:47;;;;;;;3.00;2.30;;;15.20;99.90;;;;;;5071824;28;20204;-59
2023/07/07 01:05:14;;;;;;;6.10;2.80;;;15.20;99.90;;;;;;5072477;28;20208;-58
2023/07/07 01:07:45;;;;;;;3.63;2.60;;;15.10;99.90;;;;;;5071577;28;20209;-57
2023/07/07 01:10:12;;;;;;;3.87;2.60;;;15.10;99.90;;;;;;5071528;28;20277;-61
2023/07/07 01:12:39;;;;;;;2.80;2.23;;;15.10;99.90;;;;;;5071791;28;20262;-58
2023/07/07 01:15:07;;;;;;;3.20;2.40;;;15.00;99.90;;;;;;5072005;28;20299;-58
2023/07/07 01:17:44;;;;;;;5.73;2.60;;;15.00;99.90;;;;;;5070643;28;20584;-58
2023/07/07 01:20:21;;;;;;;4.17;2.70;;;15.00;99.90;;;;;;5096213;22;20240;-64
2023/07/07 01:23:26;;;;;;;4.90;2.37;;;15.00;99.90;;;;;;5070399;28;20210;-63
2023/07/07 01:26:32;;;;;;;4.00;2.40;;;14.90;99.90;;;;;;5051062;28;20201;-63
2023/07/07 01:29:27;;;;;;;3.70;2.67;;;14.80;99.90;;;;;;5039190;28;20255;-64
2023/07/07 01:31:58;;;;;;;4.13;2.73;;;14.80;99.90;;;;;;5047412;28;20232;-63
2023/07/07 01:34:26;;;;;;;2.73;2.43;;;14.70;99.90;;;;;;5051398;28;20252;-63
2023/07/07 01:36:53;;;;;;;3.93;2.90;;;14.60;99.90;;;;;;5050933;28;20209;-63
2023/07/07 01:39:19;;;;;;;4.17;2.53;;;14.60;99.90;;;;;;5050939;28;20217;-64
2023/07/07 01:41:54;;;;;;;3.00;2.70;;;14.60;99.90;;;;;;5050965;28;20636;-63
2023/07/07 01:44:26;;;;;;;4.77;2.77;;;14.50;99.90;;;;;;5051390;28;20305;-64
2023/07/07 01:47:01;;;;;;;6.37;2.80;;;14.50;99.90;;;;;;5050645;28;20559;-63
2023/07/07 01:49:33;;;;;;;3.87;2.70;;;14.40;99.90;;;;;;5051085;28;20668;-64
2023/07/07 01:52:06;;;;;;;3.47;2.60;;;14.50;99.90;;;;;;5050697;28;20231;-64
2023/07/07 01:54:38;;;;;;;4.53;3.17;;;14.50;99.90;;;;;;5051106;28;20214;-64
2023/07/07 01:57:07;;;;;;;4.10;2.77;;;14.50;99.90;;;;;;5050760;28;20213;-63
2023/07/07 01:59:34;;;;;;;3.47;2.87;;;14.50;99.90;;;;;;5051112;28;20221;-63
2023/07/07 02:02:03;;;;;;;3.67;2.90;;;14.50;99.90;;;;;;5050736;28;20232;-64
2023/07/07 02:04:30;;;;;;;4.67;2.50;;;14.50;99.90;;;;;;5051097;28;20210;-63
2023/07/07 02:06:56;;;;;;;4.17;2.57;;;14.50;99.90;;;;;;5051070;28;20213;-64
2023/07/07 02:09:23;;;;;;;5.00;2.40;;;14.50;99.90;;;;;;5050936;28;20576;-64
2023/07/07 02:11:50;;;;;;;4.93;2.53;;;14.50;99.90;;;;;;5050821;28;20241;-63
2023/07/07 02:14:17;;;;;;;4.70;2.73;;;14.50;99.90;;;;;;5050947;28;20202;-63
2023/07/07 02:16:43;;;;;;;4.27;3.00;;;14.50;99.90;;;;;;5050620;28;20526;-64
2023/07/07 02:19:12;;;;;;;4.67;2.77;;;14.40;99.90;;;;;;5051047;28;20221;-63
2023/07/07 02:21:38;;;;;;;3.53;2.50;;;14.40;99.90;;;;;;5050954;28;20237;-63
2023/07/07 02:24:06;;;;;;;3.27;2.90;;;14.30;99.90;;;;;;5051225;28;20296;-63
2023/07/07 02:26:32;;;;;;;3.00;2.43;;;14.30;99.90;;;;;;5050766;28;20201;-63
2023/07/07 02:28:59;;;;;;;2.83;2.47;;;14.30;99.90;;;;;;5052949;28;20214;-63
2023/07/07 02:31:26;;;;;;;3.70;2.67;;;14.40;99.90;;;;;;5055222;28;20236;-63
2023/07/07 02:33:52;;;;;;;2.93;2.57;;;14.40;99.90;;;;;;5054779;28;20208;-63
2023/07/07 02:36:21;;;;;;;4.57;2.70;;;14.40;99.90;;;;;;5054463;28;20257;-64
2023/07/07 02:38:47;;;;;;;5.00;2.67;;;14.30;99.90;;;;;;5054628;28;20224;-64
2023/07/07 02:41:14;;;;;;;3.87;2.77;;;14.30;99.90;;;;;;5054130;28;20229;-63
2023/07/07 02:43:41;;;;;;;4.57;2.40;;;14.20;99.90;;;;;;5053962;28;20217;-63
2023/07/07 02:46:08;;;;;;;3.37;2.40;;;14.20;99.90;;;;;;5053777;28;20205;-64
2023/07/07 02:48:35;;;;;;;7.00;2.97;;;14.20;99.90;;;;;;5053959;28;20342;-64
2023/07/07 02:51:04;;;;;;;4.43;2.67;;;14.20;99.90;;;;;;5054132;28;20218;-64
2023/07/07 02:53:35;;;;;;;3.33;2.67;;;14.20;99.90;;;;;;5053920;28;20296;-63
2023/07/07 02:56:02;;;;;;;4.40;2.70;;;14.20;99.90;;;;;;5053709;28;20231;-65
2023/07/07 02:58:30;;;;;;;3.60;2.53;;;14.20;99.90;;;;;;5054045;28;20212;-64
2023/07/07 03:01:09;;;;;;;4.13;2.77;;;14.20;99.90;;;;;;5053701;28;20355;-65
2023/07/07 03:03:37;;;;;;;5.30;3.37;;;14.20;99.90;;;;;;5053844;28;20252;-65
2023/07/07 03:06:05;;;;;;;6.33;2.50;;;14.30;99.90;;;;;;5053619;28;20210;-65
2023/07/07 03:08:33;;;;;;;4.13;2.93;;;14.30;99.90;;;;;;5053849;28;20209;-65
2023/07/07 03:11:05;;;;;;;4.80;2.93;;;14.20;99.90;;;;;;5053354;28;20232;-65
2023/07/07 03:13:32;;;;;;;4.70;2.60;;;14.30;99.90;;;;;;5053818;28;20296;-65
2023/07/07 03:15:59;;;;;;;4.83;2.93;;;14.30;99.90;;;;;;5053357;28;20216;-65
2023/07/07 03:18:25;;;;;;;4.93;2.83;;;14.30;99.90;;;;;;5053384;28;20237;-65
2023/07/07 03:20:52;;;;;;;6.37;3.00;;;14.30;99.90;;;;;;5053043;28;20684;-65
2023/07/07 03:23:19;;;;;;;3.50;2.60;;;14.30;99.90;;;;;;5053185;28;20228;-65
2023/07/07 03:25:47;;;;;;;4.20;2.73;;;14.30;99.90;;;;;;5053235;28;20209;-64
2023/07/07 03:28:14;;;;;;;2.83;2.53;;;14.30;99.90;;;;;;5053507;28;20212;-64
2023/07/07 03:30:41;;;;;;;9.20;3.33;;;14.30;99.90;;;;;;5053586;28;20234;-65
2023/07/07 03:33:08;;;;;;;3.93;2.90;;;14.30;99.90;;;;;;5053334;28;20213;-63
2023/07/07 03:35:34;;;;;;;5.03;2.80;;;14.40;99.90;;;;;;5053297;28;20213;-65
2023/07/07 03:38:01;;;;;;;5.57;3.13;;;14.40;99.90;;;;;;5052719;28;20209;-66
2023/07/07 03:40:28;;;;;;;4.23;2.83;;;14.40;99.90;;;;;;5051869;28;20252;-65
2023/07/07 03:42:56;;;;;;;5.70;3.00;;;14.40;99.90;;;;;;5053370;28;20237;-65
2023/07/07 03:45:23;;;;;;;4.63;2.80;;;14.30;99.90;;;;;;5053147;28;20216;-65
2023/07/07 03:47:50;;;;;;;3.43;2.90;;;14.30;99.90;;;;;;5052772;28;20198;-64
2023/07/07 03:50:17;;;;;;;3.03;2.37;;;14.30;99.90;;;;;;5052849;28;20288;-65
2023/07/07 03:52:43;;;;;;;4.20;2.70;;;14.30;99.90;;;;;;5052715;28;20255;-65
2023/07/07 03:55:10;;;;;;;3.97;3.07;;;14.40;99.90;;;;;;5052827;28;20685;-64
2023/07/07 03:57:37;;;;;;;5.63;3.00;;;14.40;99.90;;;;;;5052701;28;20582;-65
2023/07/07 04:00:07;;;;;;;6.87;3.20;;;14.40;99.90;;;;;;5052826;28;20607;-64
2023/07/07 04:02:35;;;;;;;3.50;2.80;;;14.30;99.90;;;;;;5052929;28;20202;-65
2023/07/07 04:05:02;;;;;;;6.17;2.83;;;14.40;99.90;;;;;;5052477;28;20206;-65
2023/07/07 04:07:28;;;;;;;3.30;2.53;;;14.40;99.90;;;;;;5052484;28;20212;-63
2023/07/07 04:09:55;;;;;;;5.07;2.73;;;14.50;99.90;;;;;;5052839;28;20605;-65
2023/07/07 04:12:22;;;;;;;4.07;2.87;;;14.50;99.90;;;;;;5052627;28;20325;-66
2023/07/07 04:14:48;;;;;;;3.60;2.97;;;14.60;99.90;;;;;;5052327;28;20224;-64
2023/07/07 04:17:16;;;;;;;5.00;2.80;;;14.60;99.90;;;;;;5052342;28;20264;-65
2023/07/07 04:19:43;;;;;;;6.27;3.17;;;14.70;99.90;;;;;;5052172;28;20673;-65
2023/07/07 04:22:10;;;;;;;4.60;3.20;;;14.80;99.90;;;;;;5052120;28;20241;-65
2023/07/07 04:24:37;;;;;;;6.17;3.13;;;14.80;99.90;;;;;;5052189;28;20251;-65
2023/07/07 04:27:04;;;;;;;4.00;2.77;;;14.90;99.90;;;;;;5052138;28;20209;-65
2023/07/07 04:29:31;;;;;;;3.90;2.60;;;14.90;99.90;;;;;;5052062;28;20671;-65
2023/07/07 04:31:59;;;;;;;5.10;3.03;;;14.90;99.90;;;;;;5052198;28;20275;-65
2023/07/07 04:34:27;;;;;;;4.53;2.80;;;14.90;99.90;;;;;;5052155;28;20206;-65
2023/07/07 04:36:54;;;;;;;3.77;2.90;;;14.90;99.90;;;;;;5052075;28;20264;-65
2023/07/07 04:39:21;;;;;;;6.90;3.00;;;15.00;99.90;;;;;;5052181;28;20213;-65
2023/07/07 04:41:50;;;;;;;4.73;2.90;;;15.00;99.90;;;;;;5051801;28;20230;-64
2023/07/07 04:44:17;;;;;;;3.20;2.60;;;15.10;99.90;;;;;;5051954;28;20205;-65
2023/07/07 04:46:43;;;;;;;13.93;3.47;;;15.10;99.90;;;;;;5051618;28;20591;-64
2023/07/07 04:49:11;;;;;;;4.97;2.83;;;15.20;99.90;;;;;;5051731;28;20535;-65
2023/07/07 04:51:41;;;;;;;4.30;2.93;;;15.40;99.90;;;;;;5051880;28;20232;-65
2023/07/07 04:54:12;;;;;;;3.80;2.67;;;15.50;99.90;;;;;;5052422;28;20210;-65
2023/07/07 04:56:39;;;;;;;4.15;2.20;;;15.70;99.90;;;;;;5051850;28;20214;-65
2023/07/07 04:59:06;;;;;;;5.35;2.85;;;16.10;99.90;;;;;;5051989;28;20210;-65
2023/07/07 05:01:33;;;;;;;3.90;2.47;;;16.70;99.90;;;;;;5051862;28;20701;-64
2023/07/07 05:04:03;;;;;;;5.80;2.88;;;17.80;99.90;;;;;;5052661;28;20221;-65
2023/07/07 05:06:33;;;;;;;3.88;2.50;;;19.50;99.90;;;;;;5051614;28;20245;-66
2023/07/07 05:09:03;;;;;;;4.18;2.70;;;21.10;99.90;;;;;;5051815;28;20206;-65
2023/07/07 05:11:32;;;;;;;4.03;2.60;;;22.50;99.40;;;;;;5051681;28;20701;-66
2023/07/07 05:14:00;;;;;;;3.25;2.65;;;23.70;96.40;;;;;;5051628;28;20209;-66
2023/07/07 05:16:28;;;;;;;4.15;2.63;;;24.90;92.50;;;;;;5050868;28;20212;-66
2023/07/07 05:18:54;;;;;;;4.22;2.80;;;26.10;89.10;;;;;;5051535;28;20206;-66
2023/07/07 05:21:24;;;;;;;5.25;2.42;;;27.20;82.50;;;;;;5050970;28;20229;-66
2023/07/07 05:23:52;;;;;;;6.22;2.65;;;28.20;76.10;;;;;;5051346;28;20383;-66
2023/07/07 05:26:20;;;;;;;5.15;2.67;;;29.20;71.10;;;;;;5050809;28;20241;-65
2023/07/07 05:28:46;;;;;;;3.08;2.40;;;29.90;67.10;;;;;;5051343;28;20206;-66
2023/07/07 05:31:13;;;;;;;2.40;2.20;;;30.30;65.00;;;;;;5051500;28;20218;-66
2023/07/07 05:33:40;;;;;;;5.43;2.95;;;30.70;62.50;;;;;;5051477;28;20213;-66
2023/07/07 05:36:09;;;;;;;3.97;2.80;;;31.30;60.10;;;;;;5051076;28;20243;-66
2023/07/07 05:38:38;;;;;;;3.15;2.33;;;31.50;58.40;;;;;;5051321;28;20237;-66
2023/07/07 05:41:05;;;;;;;3.33;2.25;;;31.50;57.90;;;;;;5050762;28;20237;-66
2023/07/07 05:43:35;;;;;;;3.72;2.53;;;31.30;56.90;;;;;;5051557;28;20221;-66
2023/07/07 05:46:03;;;;;;;5.72;3.70;;;31.70;56.30;;;;;;5051384;28;20220;-66
2023/07/07 05:48:31;;;;;;;4.78;3.15;;;32.50;55.40;;;;;;5051653;28;20300;-65
2023/07/07 05:51:00;;;;;;;2.92;2.47;;;33.40;54.00;;;;;;5051376;28;20221;-65
2023/07/07 05:53:27;;;;;;;5.95;2.45;;;34.20;51.70;;;;;;5051051;28;20216;-66
2023/07/07 05:55:58;;;;;;;5.55;2.80;;;34.90;50.80;;;;;;5050938;28;20217;-66
2023/07/07 05:58:25;;;;;;;4.35;2.40;;;35.90;48.90;;;;;;5051226;28;20209;-66
2023/07/07 06:00:53;;;;;;;3.03;2.35;;;36.80;47.30;;;;;;5051090;28;20335;-67
2023/07/07 06:03:20;;;;;;;4.43;2.22;;;37.50;45.00;;;;;;5052056;28;20639;-65
2023/07/07 06:05:46;;;;;;;5.03;2.25;;;37.70;44.00;;;;;;5054775;28;20201;-66
2023/07/07 06:08:13;;;;;;;3.63;2.25;;;38.20;43.50;;;;;;5055357;28;20205;-66
2023/07/07 06:10:40;;;;;;;4.65;2.22;;;38.70;42.80;;;;;;5054946;28;20218;-66
2023/07/07 06:13:06;;;;;;;2.70;2.40;;;39.20;41.40;;;;;;5054502;28;20210;-66
2023/07/07 06:15:33;;;;;;;3.13;2.55;;;39.40;40.90;;;;;;5055012;28;20603;-67
2023/07/07 06:18:01;;;;;;;4.10;2.50;;;39.80;40.50;;;;;;5054588;28;20216;-66
2023/07/07 06:20:28;;;;;;;2.95;2.35;;;40.20;39.00;;;;;;5054432;28;20229;-66
2023/07/07 06:22:57;;;;;;;5.53;2.10;;;40.30;38.50;;;;;;5054689;28;20557;-64
2023/07/07 06:25:24;;;;;;;4.18;2.78;;;40.00;38.60;;;;;;5054872;28;20230;-66
2023/07/07 06:27:51;;;;;;;3.08;2.63;;;39.70;38.50;;;;;;5054614;28;20212;-67
2023/07/07 06:30:18;;;;;;;3.45;2.40;;;39.40;38.80;;;;;;5054495;28;20233;-65
2023/07/07 06:32:45;;;;;;;5.38;2.78;;;39.10;39.20;;;;;;5054545;28;20214;-66
2023/07/07 06:35:13;;;;;;;4.72;2.90;;;38.90;39.10;;;;;;5054355;28;20566;-66
2023/07/07 06:37:40;;;;;;;3.83;2.80;;;39.00;39.20;;;;;;5054199;28;20202;-65
2023/07/07 06:40:07;;;;;;;6.63;2.88;;;39.10;38.90;;;;;;5054795;28;20201;-65
2023/07/07 06:42:34;;;;;;;3.40;2.63;;;39.00;39.20;;;;;;5055288;28;20229;-65
2023/07/07 06:45:01;;;;;;;3.97;2.25;;;39.10;39.40;;;;;;5055363;28;20255;-65
2023/07/07 06:47:28;;;;;;;3.40;2.75;;;39.40;39.40;;;;;;5054447;28;20216;-66
2023/07/07 06:49:55;;;;;;;6.15;3.15;;;39.80;38.90;;;;;;5054830;28;20588;-66
2023/07/07 06:52:23;;;;;;;2.70;2.50;;;40.30;38.80;;;;;;5054607;28;20604;-66
2023/07/07 06:54:49;;;;;;;5.10;2.70;;;40.60;38.70;;;;;;5053958;28;20210;-66
2023/07/07 06:57:16;;;;;;;3.88;3.00;;;40.90;38.00;;;;;;5054058;28;20240;-66
2023/07/07 06:59:43;;;;;;;5.75;2.97;;;41.40;37.60;;;;;;5054271;28;20205;-66
2023/07/07 07:02:13;;;;;;;3.65;2.83;;;41.70;37.60;;;;;;5053940;28;20229;-66
2023/07/07 07:04:40;;;;;;;6.05;2.80;;;42.40;36.80;;;;;;5054522;28;20228;-64
2023/07/07 07:07:07;;;;;;;4.22;2.70;;;43.30;35.70;;;;;;5054496;28;20278;-65
2023/07/07 07:09:35;;;;;;;3.25;2.58;;;43.60;35.20;;;;;;5065008;28;20204;-63
2023/07/07 07:12:02;;;;;;;4.30;3.15;;;43.70;35.00;;;;;;5074007;28;20231;-66
2023/07/07 07:14:29;;;;;;;3.97;2.90;;;44.00;34.80;;;;;;5073152;28;20209;-62
2023/07/07 07:16:55;;;;;;;5.20;3.08;;;44.40;34.60;;;;;;5073222;28;20237;-61
2023/07/07 07:19:22;;;;;;;5.68;2.97;;;45.00;34.00;;;;;;5073512;28;20212;-62
2023/07/07 07:21:49;;;;;;;3.15;2.85;;;45.50;33.30;;;;;;5086474;22;20290;-57
2023/07/07 07:24:15;;;;;;;3.33;2.80;;;45.70;32.90;;;;;;5053253;28;20213;-58
2023/07/07 07:26:43;;;;;;;4.57;3.13;;;45.70;33.10;;;;;;5053406;28;20208;-57
2023/07/07 07:29:14;;;;;;;6.45;3.17;;;46.10;32.70;;;;;;5053775;28;20208;-59
2023/07/07 07:31:41;;;;;;;3.45;2.50;;;46.70;32.10;;;;;;5053118;28;20318;-59
2023/07/07 07:34:23;;;;;;;2.90;2.60;;;46.80;32.10;;;;;;5053395;28;20274;-61
2023/07/07 07:36:51;;;;;;;3.03;2.72;;;46.70;31.80;;;;;;5053162;28;20683;-60
2023/07/07 07:39:17;;;;;;;3.00;2.70;;;46.50;32.30;;;;;;5053240;28;20215;-58
2023/07/07 07:41:48;;;;;;;6.22;2.50;;;46.50;32.30;;;;;;5052631;28;20312;-62
2023/07/07 07:44:16;;;;;;;7.45;3.10;;;46.90;32.10;;;;;;5053252;28;20212;-61
2023/07/07 07:46:43;;;;;;;7.40;2.83;;;47.60;31.20;;;;;;5053101;28;20212;-58
2023/07/07 07:49:10;;;;;;;3.78;2.65;;;47.80;30.80;;;;;;5053022;28;20586;-62
2023/07/07 07:51:39;;;;;;;4.15;2.90;;;47.80;30.60;;;;;;5045576;28;20226;-57
2023/07/07 07:54:07;;;;;;;3.95;2.80;;;48.10;30.90;;;;;;5049396;28;20193;-60
2023/07/07 07:56:34;;;;;;;4.38;2.95;;;48.20;30.70;;;;;;5032869;28;20206;-60
2023/07/07 07:59:03;;;;;;;3.17;2.88;;;48.10;30.60;;;;;;5032876;28;20220;-54
2023/07/07 08:01:30;;;;;;;5.03;2.67;;;48.00;30.50;;;;;;5032684;28;20304;-60
2023/07/07 08:03:57;;;;;;;5.80;2.78;;;48.20;30.60;;;;;;5033137;28;20209;-57
2023/07/07 08:06:23;;;;;;;5.45;3.00;;;48.40;30.40;;;;;;5032137;28;20212;-59
2023/07/07 08:08:50;;;;;;;4.55;2.78;;;48.60;30.00;;;;;;5032489;28;20596;-56
2023/07/07 08:11:19;;;;;;;4.25;2.90;;;47.80;30.40;;;;;;5032423;28;20232;-59
2023/07/07 08:13:46;;;;;;;4.88;2.95;;;47.30;31.70;;;;;;5032671;28;20205;-59
2023/07/07 08:16:14;;;;;;;4.97;2.80;;;47.30;31.30;;;;;;5032218;28;20202;-54
2023/07/07 08:18:42;;;;;;;5.00;2.70;;;47.50;31.00;;;;;;5031884;28;20209;-55
2023/07/07 08:21:08;;;;;;;5.10;2.85;;;47.80;30.90;;;;;;5032223;28;20288;-54
2023/07/07 08:23:35;;;;;;;7.07;3.00;;;47.90;30.60;;;;;;5032111;28;20615;-55
2023/07/07 08:26:02;;;;;;;5.18;3.10;;;48.30;30.70;;;;;;5032038;28;20209;-54
2023/07/07 08:28:28;;;;;;;3.28;2.92;;;47.90;30.60;;;;;;5032437;28;20205;-54
2023/07/07 08:30:55;;;;;;;4.55;3.00;;;47.40;31.10;;;;;;5031765;28;20230;-56
2023/07/07 08:33:23;;;;;;;3.38;3.00;;;47.20;31.30;;;;;;5032609;28;20335;-56
2023/07/07 08:35:50;;;;;;;3.75;3.35;;;47.50;31.20;;;;;;5031812;28;20289;-56
2023/07/07 08:38:17;;;;;;;4.68;3.22;;;47.70;31.10;;;;;;5032247;28;20666;-55
2023/07/07 08:40:47;;;;;;;7.75;2.95;;;47.80;30.90;;;;;;5031999;28;20268;-55
2023/07/07 08:43:14;;;;;;;3.42;3.00;;;47.80;30.80;;;;;;5031826;28;20216;-56
2023/07/07 08:45:49;;;;;;;3.35;3.05;;;47.90;30.70;;;;;;5031733;28;20209;-55
2023/07/07 08:48:26;;;;;;;5.65;3.15;;;47.80;30.40;;;;;;5031872;28;20205;-56
2023/07/07 08:50:58;;;;;;;4.05;3.65;;;47.50;30.40;;;;;;5032311;28;20226;-55
2023/07/07 08:53:39;;;;;;;4.35;3.70;;;46.50;31.40;;;;;;5031868;28;20205;-54
2023/07/07 08:56:16;;;;;;;5.47;3.65;;;45.00;31.50;;;;;;5031283;28;20344;-54
2023/07/07 08:58:56;;;;;;;5.65;3.90;;;42.50;33.40;;;;;;5032346;28;20326;-54
2023/07/07 09:01:42;;;;;;;4.30;3.90;;;39.80;35.20;;;;;;5031744;28;20229;-54
2023/07/07 09:04:23;;;;;;;4.75;3.97;;;37.70;37.70;;;;;;5031819;28;20213;-53
2023/07/07 09:07:02;;;;;;;4.25;3.85;;;36.20;39.10;;;;;;5031446;28;20206;-55
2023/07/07 09:09:51;;;;;;;8.13;4.25;;;35.20;39.80;;;;;;5031673;28;20217;-53
2023/07/07 09:12:28;;;;;;;4.80;4.13;;;33.90;40.70;;;;;;5031437;28;20237;-53
2023/07/07 09:14:58;;;;;;;5.93;4.68;;;33.00;41.60;;;;;;5031689;28;20210;-54
2023/07/07 09:17:28;;;;;;;5.40;4.20;;;32.20;42.60;;;;;;5030947;28;20692;-54
2023/07/07 09:19:58;;;;;;;6.40;4.35;;;31.70;43.80;;;;;;5031307;28;20213;-54
2023/07/07 09:22:30;;;;;;;6.95;4.70;;;31.20;45.10;;;;;;5031206;28;20743;-55
2023/07/07 09:25:03;;;;;;;8.52;4.28;;;30.80;46.00;;;;;;5031782;28;20220;-54
2023/07/07 09:27:36;;;;;;;5.03;4.40;;;30.60;45.90;;;;;;5031624;28;20210;-53
2023/07/07 09:30:14;;;;;;;4.85;4.22;;;30.50;44.90;;;;;;5031390;28;20213;-54
2023/07/07 09:32:41;;;;;;;8.98;5.13;;;30.50;44.60;;;;;;5031003;28;20236;-53
2023/07/07 09:35:13;;;;;;;5.43;4.30;;;30.40;44.70;;;;;;5031528;28;20599;-53
2023/07/07 09:37:48;;;;;;;7.60;4.65;;;30.10;45.30;;;;;;5030716;28;20296;-53
2023/07/07 09:40:19;;;;;;;5.97;4.93;;;30.10;45.40;;;;;;5031458;28;20206;-56
2023/07/07 09:42:59;;;;;;;7.07;5.53;;;30.30;44.80;;;;;;5031412;28;20226;-54
2023/07/07 09:45:39;;;;;;;8.23;5.00;;;30.30;44.70;;;;;;5030962;28;20678;-53
2023/07/07 09:48:18;;;;;;;6.47;5.15;;;30.30;46.00;;;;;;5031452;28;20210;-53
2023/07/07 09:50:59;;;;;;;6.18;4.88;;;30.20;46.30;;;;;;5031106;28;20202;-53
2023/07/07 09:53:30;;;;;;;5.85;4.82;;;30.10;47.00;;;;;;5031195;28;20276;-55
2023/07/07 09:55:58;;;;;;;5.15;4.50;;;30.10;47.70;;;;;;5031171;28;20202;-55
2023/07/07 09:58:29;;;;;;;6.47;4.43;;;30.10;47.20;;;;;;5031161;28;20203;-53
2023/07/07 10:00:59;;;;;;;5.30;4.65;;;30.10;46.90;;;;;;5030896;28;20226;-53
2023/07/07 10:03:32;;;;;;;5.55;4.40;;;29.90;46.80;;;;;;5030736;28;20202;-53
2023/07/07 10:06:03;;;;;;;7.00;5.63;;;29.80;46.90;;;;;;5031020;28;20206;-52
2023/07/07 10:08:30;;;;;;;7.57;4.70;;;29.80;48.00;;;;;;5030719;28;20316;-53
2023/07/07 10:11:09;;;;;;;7.68;5.22;;;29.80;47.60;;;;;;5030811;28;20638;-54
2023/07/07 10:13:36;;;;;;;6.97;4.95;;;29.70;48.00;;;;;;5030733;28;20226;-56
2023/07/07 10:16:07;;;;;;;6.88;5.00;;;29.60;47.70;;;;;;5030425;28;20297;-53
2023/07/07 10:18:35;;;;;;;6.88;5.60;;;29.50;48.00;;;;;;5030875;28;20213;-56
2023/07/07 10:21:08;;;;;;;9.63;5.22;;;29.60;47.80;;;;;;5030118;28;20238;-53
2023/07/07 10:23:40;;;;;;;6.43;5.00;;;29.80;47.50;;;;;;5030729;28;20256;-55
2023/07/07 10:26:07;;;;;;;7.35;5.45;;;30.00;47.50;;;;;;5030410;28;20808;-53
2023/07/07 10:28:34;;;;;;;6.72;5.13;;;30.10;46.80;;;;;;5030541;28;20246;-53
2023/07/07 10:31:02;;;;;;;7.85;5.25;;;30.00;46.50;;;;;;5030646;28;20227;-53
2023/07/07 10:33:29;;;;;;;6.90;5.35;;;29.90;46.50;;;;;;5030337;28;20272;-53
2023/07/07 10:35:55;;;;;;;6.13;5.20;;;29.80;46.60;;;;;;5030444;28;20202;-53
2023/07/07 10:38:24;;;;;;;7.00;5.22;;;29.90;46.40;;;;;;5030466;28;20233;-53
2023/07/07 10:40:53;;;;;;;8.95;5.05;;;29.90;47.00;;;;;;5030945;28;20254;-53
2023/07/07 10:43:23;;;;;;;7.70;5.53;;;30.00;47.10;;;;;;5030307;28;20206;-54
2023/07/07 10:45:50;;;;;;;7.32;5.78;;;30.20;46.60;;;;;;5029965;28;20638;-54
2023/07/07 10:48:17;;;;;;;8.57;6.35;;;30.30;46.10;;;;;;5030582;28;20202;-54
2023/07/07 10:50:56;;;;;;;7.22;6.05;;;30.50;44.70;;;;;;5032983;28;20581;-58
2023/07/07 10:53:43;;;;;;;6.88;5.68;;;30.60;45.00;;;;;;5034098;28;20620;-57
2023/07/07 10:56:28;;;;;;;7.78;5.97;;;30.60;45.30;;;;;;5034010;28;20213;-56
2023/07/07 10:59:35;;;;;;;8.05;5.65;;;30.70;45.60;;;;;;5034060;28;20285;-58
2023/07/07 11:02:29;;;;;;;7.70;5.53;;;30.80;45.00;;;;;;5036903;28;20221;-59
2023/07/07 11:05:21;;;;;;;7.63;6.07;;;30.80;45.00;;;;;;5033941;28;20206;-58
2023/07/07 11:07:56;;;;;;;8.98;6.00;;;30.70;44.90;;;;;;5034947;28;20206;-59
2023/07/07 11:10:46;;;;;;;8.73;5.82;;;30.70;44.70;;;;;;5034073;28;20206;-56
2023/07/07 11:13:21;;;;;;;6.47;5.40;;;30.70;44.70;;;;;;5033770;28;20234;-55
2023/07/07 11:15:56;;;;;;;7.13;5.97;;;30.70;44.90;;;;;;5033731;28;20272;-55
2023/07/07 11:18:41;;;;;;;7.88;6.28;;;30.70;44.70;;;;;;5033890;28;20205;-55
2023/07/07 11:21:20;;;;;;;6.82;5.57;;;30.70;44.90;;;;;;5034070;28;20230;-55
2023/07/07 11:24:02;;;;;;;7.72;5.78;;;30.70;44.90;;;;;;5034028;28;20220;-54
2023/07/07 11:26:47;;;;;;;8.57;5.35;;;30.50;44.90;;;;;;5034056;28;20214;-54
2023/07/07 11:29:23;;;;;;;9.55;5.88;;;30.50;45.10;;;;;;5034132;28;20222;-54
2023/07/07 11:32:05;;;;;;;7.78;5.65;;;30.60;44.90;;;;;;5033735;28;20584;-56
2023/07/07 11:34:57;;;;;;;8.98;6.50;;;30.70;44.90;;;;;;5034054;28;20210;-58
2023/07/07 11:37:40;;;;;;;7.80;6.30;;;30.90;44.50;;;;;;5033903;28;20275;-55
2023/07/07 11:40:23;;;;;;;7.78;5.90;;;31.20;44.00;;;;;;5034207;28;20209;-56
2023/07/07 11:43:11;;;;;;;8.10;5.55;;;31.50;43.30;;;;;;5034057;28;20230;-58
2023/07/07 11:45:58;;;;;;;7.30;5.95;;;31.50;43.50;;;;;;5034108;28;20210;-59
2023/07/07 11:48:35;;;;;;;10.52;6.07;;;31.40;43.60;;;;;;5034285;28;20206;-53
2023/07/07 11:51:18;;;;;;;8.15;5.80;;;31.30;43.80;;;;;;5033747;28;20229;-54
2023/07/07 11:53:59;;;;;;;7.05;5.80;;;31.20;43.80;;;;;;5033851;28;20228;-56
2023/07/07 11:56:53;;;;;;;6.72;5.47;;;31.20;43.90;;;;;;5033770;28;20206;-55
2023/07/07 11:59:37;;;;;;;8.15;5.88;;;31.20;43.20;;;;;;5033547;28;20206;-54
2023/07/07 12:02:14;;;;;;;7.55;6.03;;;31.40;42.70;;;;;;5032934;28;20276;-54
2023/07/07 12:04:43;;;;;;;9.13;7.53;;;31.40;42.80;;;;;;5033607;28;20273;-55
2023/07/07 12:07:20;;;;;;;7.53;6.40;;;31.30;42.30;;;;;;5033048;28;20311;-55
2023/07/07 12:09:53;;;;;;;8.18;6.18;;;31.30;42.60;;;;;;5033379;28;20304;-54
2023/07/07 12:12:25;;;;;;;10.45;6.40;;;31.30;42.70;;;;;;5032977;28;20279;-56
2023/07/07 12:14:58;;;;;;;7.00;5.57;;;31.30;42.90;;;;;;5033058;28;20190;-55
2023/07/07 12:17:29;;;;;;;8.00;6.15;;;31.30;42.90;;;;;;5032757;28;20217;-54
2023/07/07 12:20:00;;;;;;;7.82;6.03;;;31.30;43.20;;;;;;5032976;28;20228;-56
2023/07/07 12:22:37;;;;;;;6.80;5.75;;;31.40;42.90;;;;;;5032772;28;20238;-54
2023/07/07 12:25:15;;;;;;;9.68;6.40;;;31.50;42.60;;;;;;5032753;28;20263;-55
2023/07/07 12:27:45;;;;;;;7.03;5.95;;;31.60;42.00;;;;;;5032920;28;20628;-55
2023/07/07 12:30:19;;;;;;;10.65;6.43;;;31.70;42.30;;;;;;5032732;28;20207;-55
2023/07/07 12:32:46;;;;;;;7.15;6.45;;;31.70;41.70;;;;;;5032461;28;20230;-54
2023/07/07 12:35:16;;;;;;;9.50;6.10;;;31.60;42.20;;;;;;5032827;28;20214;-54
2023/07/07 12:37:43;;;;;;;6.68;6.00;;;31.60;41.30;;;;;;5032490;28;20319;-54
2023/07/07 12:40:17;;;;;;;9.52;6.45;;;31.70;41.40;;;;;;5032529;28;20257;-54
2023/07/07 12:42:45;;;;;;;6.93;6.05;;;31.80;41.40;;;;;;5032722;28;20230;-54
2023/07/07 12:45:25;;;;;;;9.20;6.70;;;31.90;41.10;;;;;;5032538;28;20855;-54
2023/07/07 12:47:59;;;;;;;7.70;6.07;;;32.10;40.70;;;;;;5032236;28;20228;-53
2023/07/07 12:50:28;;;;;;;7.82;6.15;;;32.20;40.40;;;;;;5032473;28;20209;-57
2023/07/07 12:53:01;;;;;;;10.60;6.65;;;32.20;40.40;;;;;;5032367;28;20233;-54
2023/07/07 12:55:31;;;;;;;8.98;6.35;;;32.10;40.30;;;;;;5032102;28;20242;-55
2023/07/07 12:58:16;;;;;;;6.47;5.78;;;32.00;40.70;;;;;;5032157;28;20240;-55
2023/07/07 13:00:44;;;;;;;8.95;6.22;;;32.10;40.60;;;;;;5032845;28;20210;-54
2023/07/07 13:03:19;;;;;;;8.00;6.43;;;32.30;40.40;;;;;;5032431;28;20202;-54